Time;durP1;ratioP1;P1;durP2;ratioP2;P2;SDS_P1;SDS_P2;PMS_P1;PMS_P2;Temp;Humidity;BMP_temperature;BMP_pressure;BME280_temperature;BME280_humidity;BME280_pressure;Samples;Min_cycle;Max_cycle;Signal;HPM_P1;HPM_P2
2022/09/21 00:01:29;;;;;;;58.45;2.97;;;;;;;;;;5074694;28;20209;-68
2022/09/21 00:03:57;;;;;;;58.67;3.20;;;;;;;;;;5074441;28;20717;-68
2022/09/21 00:06:26;;;;;;;58.58;3.30;;;;;;;;;;5074934;28;20205;-68
2022/09/21 00:08:53;;;;;;;58.90;3.00;;;;;;;;;;5074156;28;20583;-67
2022/09/21 00:11:22;;;;;;;59.00;3.42;;;;;;;;;;5074052;28;20205;-68
2022/09/21 00:13:53;;;;;;;60.17;3.20;;;;;;;;;;5074505;28;20783;-67
2022/09/21 00:16:20;;;;;;;58.97;3.50;;;;;;;;;;5074371;28;20212;-69
2022/09/21 00:18:47;;;;;;;58.25;2.80;;;;;;;;;;5074316;28;20205;-68
2022/09/21 00:21:15;;;;;;;59.10;3.60;;;;;;;;;;5074767;28;20209;-68
2022/09/21 00:23:44;;;;;;;58.92;3.30;;;;;;;;;;5074972;28;20225;-68
2022/09/21 00:26:12;;;;;;;61.35;3.20;;;;;;;;;;5074424;28;20205;-67
2022/09/21 00:28:40;;;;;;;61.60;3.00;;;;;;;;;;5074691;28;20665;-68
2022/09/21 00:31:08;;;;;;;59.97;5.32;;;;;;;;;;5074579;28;20677;-68
2022/09/21 00:33:35;;;;;;;59.05;3.58;;;;;;;;;;5074465;28;20225;-68
2022/09/21 00:36:03;;;;;;;59.03;3.20;;;;;;;;;;5074951;28;20208;-68
2022/09/21 00:38:31;;;;;;;59.28;3.53;;;;;;;;;;5074853;28;20247;-67
2022/09/21 00:40:59;;;;;;;59.08;3.17;;;;;;;;;;5074879;28;20212;-69
2022/09/21 00:43:26;;;;;;;58.80;3.30;;;;;;;;;;5074423;28;20204;-67
2022/09/21 00:45:57;;;;;;;59.78;3.80;;;;;;;;;;5074987;28;20220;-68
2022/09/21 00:48:24;;;;;;;59.30;3.50;;;;;;;;;;5075164;28;20215;-67
2022/09/21 00:50:53;;;;;;;59.00;3.60;;;;;;;;;;5074452;28;20207;-68
2022/09/21 00:53:21;;;;;;;58.13;3.00;;;;;;;;;;5074550;28;20236;-67
2022/09/21 00:55:49;;;;;;;58.53;2.78;;;;;;;;;;5074596;28;20695;-68
2022/09/21 00:58:19;;;;;;;59.58;3.10;;;;;;;;;;5075027;28;20206;-68
2022/09/21 01:00:46;;;;;;;58.50;2.92;;;;;;;;;;5074272;28;20209;-68
2022/09/21 01:03:14;;;;;;;61.50;3.30;;;;;;;;;;5074347;28;20205;-68
2022/09/21 01:05:41;;;;;;;60.28;4.10;;;;;;;;;;5074547;28;20594;-67
2022/09/21 01:08:11;;;;;;;59.80;3.65;;;;;;;;;;5079425;28;20201;-68
2022/09/21 01:10:42;;;;;;;58.42;2.88;;;;;;;;;;5078440;28;20232;-68
2022/09/21 01:13:12;;;;;;;59.47;3.60;;;;;;;;;;5078542;28;20598;-68
2022/09/21 01:15:46;;;;;;;58.53;3.50;;;;;;;;;;5078350;28;20225;-68
2022/09/21 01:18:17;;;;;;;58.92;3.70;;;;;;;;;;5078490;28;20197;-67
2022/09/21 01:20:53;;;;;;;58.28;3.20;;;;;;;;;;5078368;28;20205;-68
2022/09/21 01:23:34;;;;;;;59.00;3.00;;;;;;;;;;5078625;28;20204;-68
2022/09/21 01:26:06;;;;;;;58.80;3.70;;;;;;;;;;5078998;28;20546;-68
2022/09/21 01:28:40;;;;;;;60.33;3.75;;;;;;;;;;5080361;28;20205;-67
2022/09/21 01:31:12;;;;;;;60.75;4.60;;;;;;;;;;5077894;28;20236;-68
2022/09/21 01:33:43;;;;;;;58.53;3.28;;;;;;;;;;5077354;28;20286;-68
2022/09/21 01:36:12;;;;;;;58.80;3.55;;;;;;;;;;5077215;28;20676;-68
2022/09/21 01:38:43;;;;;;;59.97;4.00;;;;;;;;;;5076977;28;20201;-66
2022/09/21 01:41:12;;;;;;;59.00;3.53;;;;;;;;;;5077377;28;20228;-68
2022/09/21 01:43:42;;;;;;;58.47;3.20;;;;;;;;;;5076200;28;20218;-66
2022/09/21 01:46:13;;;;;;;59.17;3.17;;;;;;;;;;5077147;28;20211;-68
2022/09/21 01:48:42;;;;;;;58.80;3.30;;;;;;;;;;5077188;28;20251;-67
2022/09/21 01:51:11;;;;;;;59.20;3.45;;;;;;;;;;5077377;28;20205;-69
2022/09/21 01:53:41;;;;;;;58.38;2.90;;;;;;;;;;5077045;28;20244;-68
2022/09/21 01:56:12;;;;;;;58.55;3.10;;;;;;;;;;5077330;28;20209;-67
2022/09/21 01:58:43;;;;;;;60.20;3.15;;;;;;;;;;5077076;28;20310;-68
2022/09/21 02:01:13;;;;;;;58.47;3.53;;;;;;;;;;5077014;28;20216;-68
2022/09/21 02:03:42;;;;;;;58.38;2.80;;;;;;;;;;5077161;28;20217;-67
2022/09/21 02:06:10;;;;;;;59.38;3.47;;;;;;;;;;5076968;28;20562;-69
2022/09/21 02:08:38;;;;;;;58.95;3.85;;;;;;;;;;5075938;28;20215;-67
2022/09/21 02:11:06;;;;;;;59.03;4.40;;;;;;;;;;5076761;28;20212;-68
2022/09/21 02:13:34;;;;;;;60.28;4.63;;;;;;;;;;5076981;28;20225;-69
2022/09/21 02:16:12;;;;;;;60.10;3.70;;;;;;;;;;5076763;28;20295;-68
2022/09/21 02:18:44;;;;;;;58.58;3.10;;;;;;;;;;5076754;28;20201;-69
2022/09/21 02:21:15;;;;;;;61.75;3.75;;;;;;;;;;5076327;28;20201;-68
2022/09/21 02:23:44;;;;;;;59.13;3.47;;;;;;;;;;5076876;28;20634;-67
2022/09/21 02:26:13;;;;;;;58.42;3.38;;;;;;;;;;5077273;28;20211;-67
2022/09/21 02:28:44;;;;;;;60.50;4.20;;;;;;;;;;5076602;28;20205;-68
2022/09/21 02:31:13;;;;;;;58.95;3.55;;;;;;;;;;5077306;28;20212;-67
2022/09/21 02:33:48;;;;;;;59.92;5.55;;;;;;;;;;5076624;28;20229;-68
2022/09/21 02:36:21;;;;;;;58.53;2.80;;;;;;;;;;5076995;28;20215;-66
2022/09/21 02:38:51;;;;;;;58.67;2.90;;;;;;;;;;5076970;28;20218;-67
2022/09/21 02:41:20;;;;;;;60.00;3.72;;;;;;;;;;5077144;28;20216;-68
2022/09/21 02:43:51;;;;;;;59.05;3.90;;;;;;;;;;5076827;28;20224;-67
2022/09/21 02:46:20;;;;;;;58.70;3.45;;;;;;;;;;5076801;28;20204;-67
2022/09/21 02:48:49;;;;;;;59.40;4.10;;;;;;;;;;5075776;28;20217;-68
2022/09/21 02:51:18;;;;;;;58.90;3.22;;;;;;;;;;5078556;28;20215;-68
2022/09/21 02:53:47;;;;;;;58.65;3.50;;;;;;;;;;5076660;28;20823;-68
2022/09/21 02:56:14;;;;;;;58.20;3.63;;;;;;;;;;5077213;28;20584;-68
2022/09/21 02:58:43;;;;;;;60.78;4.18;;;;;;;;;;5076586;28;20254;-68
2022/09/21 03:01:11;;;;;;;59.08;4.18;;;;;;;;;;5076549;28;20206;-67
2022/09/21 03:03:39;;;;;;;58.95;3.58;;;;;;;;;;5076718;28;20231;-68
2022/09/21 03:06:07;;;;;;;59.38;3.85;;;;;;;;;;5076984;28;20204;-67
2022/09/21 03:08:35;;;;;;;58.78;3.03;;;;;;;;;;5076073;28;20630;-68
2022/09/21 03:11:02;;;;;;;58.50;2.90;;;;;;;;;;5076531;28;20262;-69
2022/09/21 03:13:29;;;;;;;59.70;3.42;;;;;;;;;;5076542;28;20230;-67
2022/09/21 03:15:59;;;;;;;59.30;4.43;;;;;;;;;;5076124;28;20699;-68
2022/09/21 03:18:27;;;;;;;59.38;3.80;;;;;;;;;;5076314;28;20266;-67
2022/09/21 03:20:54;;;;;;;59.17;3.58;;;;;;;;;;5075782;28;20201;-68
2022/09/21 03:23:22;;;;;;;60.75;3.75;;;;;;;;;;5076328;28;20209;-68
2022/09/21 03:25:51;;;;;;;59.13;3.95;;;;;;;;;;5075768;28;20215;-68
2022/09/21 03:28:18;;;;;;;60.55;4.60;;;;;;;;;;5075913;28;20208;-68
2022/09/21 03:30:45;;;;;;;58.80;3.25;;;;;;;;;;5075645;28;20201;-67
2022/09/21 03:33:13;;;;;;;58.72;3.15;;;;;;;;;;5075834;28;20239;-67
2022/09/21 03:35:40;;;;;;;60.25;3.67;;;;;;;;;;5076067;28;20233;-68
2022/09/21 03:38:07;;;;;;;59.58;4.47;;;;;;;;;;5075299;28;20209;-68
2022/09/21 03:40:35;;;;;;;58.90;3.50;;;;;;;;;;5075808;28;20205;-68
2022/09/21 03:43:02;;;;;;;59.65;3.50;;;;;;;;;;5075770;28;20691;-68
2022/09/21 03:45:30;;;;;;;58.95;3.10;;;;;;;;;;5075777;28;20217;-68
2022/09/21 03:47:57;;;;;;;58.25;3.63;;;;;;;;;;5075848;28;20213;-68
2022/09/21 03:50:25;;;;;;;58.70;3.00;;;;;;;;;;5075585;28;20208;-69
2022/09/21 03:52:52;;;;;;;60.20;3.42;;;;;;;;;;5075917;28;20695;-68
2022/09/21 03:55:19;;;;;;;59.90;3.47;;;;;;;;;;5075053;28;20236;-68
2022/09/21 03:57:48;;;;;;;58.60;3.35;;;;;;;;;;5075483;28;20205;-68
2022/09/21 04:00:15;;;;;;;58.60;3.10;;;;;;;;;;5075385;28;20205;-68
2022/09/21 04:02:42;;;;;;;59.03;4.03;;;;;;;;;;5075512;28;20201;-68
2022/09/21 04:05:10;;;;;;;58.58;2.80;;;;;;;;;;5075151;28;20227;-67
2022/09/21 04:07:38;;;;;;;58.35;2.88;;;;;;;;;;5075668;28;20218;-67
2022/09/21 04:10:06;;;;;;;109.93;4.38;;;;;;;;;;5074989;28;20212;-68
2022/09/21 04:12:33;;;;;;;58.70;3.38;;;;;;;;;;5075694;28;20207;-68
2022/09/21 04:15:04;;;;;;;58.70;4.18;;;;;;;;;;5074926;28;20229;-67
2022/09/21 04:17:31;;;;;;;59.00;3.70;;;;;;;;;;5075688;28;20211;-68
2022/09/21 04:19:58;;;;;;;58.50;3.10;;;;;;;;;;5074860;28;20208;-68
2022/09/21 04:22:25;;;;;;;58.28;2.97;;;;;;;;;;5075474;28;20313;-68
2022/09/21 04:24:52;;;;;;;58.50;2.90;;;;;;;;;;5074969;28;20231;-68
2022/09/21 04:27:20;;;;;;;58.63;3.40;;;;;;;;;;5075847;28;20215;-68
2022/09/21 04:29:47;;;;;;;62.05;5.10;;;;;;;;;;5075827;28;20219;-68
2022/09/21 04:32:16;;;;;;;58.25;3.10;;;;;;;;;;5075724;28;20216;-68
2022/09/21 04:34:43;;;;;;;58.58;3.22;;;;;;;;;;5075871;28;20558;-68
2022/09/21 04:37:11;;;;;;;58.38;2.90;;;;;;;;;;5076084;28;20216;-67
2022/09/21 04:39:38;;;;;;;59.10;3.10;;;;;;;;;;5077860;28;20259;-69
2022/09/21 04:42:05;;;;;;;59.55;3.60;;;;;;;;;;5077543;28;20213;-68
2022/09/21 04:44:32;;;;;;;58.42;3.45;;;;;;;;;;5079852;28;20226;-68
2022/09/21 04:47:00;;;;;;;58.28;2.80;;;;;;;;;;5079388;28;20205;-68
2022/09/21 04:49:28;;;;;;;59.58;3.60;;;;;;;;;;5079137;28;20213;-67
2022/09/21 04:51:55;;;;;;;58.40;3.72;;;;;;;;;;5077619;28;20649;-68
2022/09/21 04:54:22;;;;;;;58.78;3.38;;;;;;;;;;5078530;28;20254;-67
2022/09/21 04:56:50;;;;;;;60.45;4.53;;;;;;;;;;5079008;28;20217;-68
2022/09/21 04:59:17;;;;;;;60.22;3.70;;;;;;;;;;5078295;28;20210;-67
2022/09/21 05:01:44;;;;;;;59.70;5.20;;;;;;;;;;5078347;28;20201;-68
2022/09/21 05:04:11;;;;;;;60.33;3.72;;;;;;;;;;5078073;28;20225;-67
2022/09/21 05:06:40;;;;;;;59.15;3.08;;;;;;;;;;5078337;28;20209;-68
2022/09/21 05:11:51;;;;;;;58.85;3.63;;;;;;;;;;5078075;28;20195;-68
2022/09/21 05:14:19;;;;;;;59.10;3.15;;;;;;;;;;5078015;28;20282;-68
2022/09/21 05:16:48;;;;;;;59.17;3.15;;;;;;;;;;5078187;28;20700;-68
2022/09/21 05:19:15;;;;;;;60.35;3.78;;;;;;;;;;5077662;28;20205;-67
2022/09/21 05:21:44;;;;;;;58.90;3.38;;;;;;;;;;5077990;28;20205;-67
2022/09/21 05:24:11;;;;;;;59.47;3.50;;;;;;;;;;5077758;28;20225;-68
2022/09/21 05:26:38;;;;;;;58.05;3.25;;;;;;;;;;5078220;28;20205;-67
2022/09/21 05:29:05;;;;;;;57.90;3.00;;;;;;;;;;5075384;28;20581;-68
2022/09/21 05:31:38;;;;;;;58.08;2.88;;;;;;;;;;5077769;28;20209;-67
2022/09/21 05:34:09;;;;;;;59.00;3.67;;;;;;;;;;5077398;28;20233;-68
2022/09/21 05:36:41;;;;;;;58.35;3.00;;;;;;;;;;5077117;28;20205;-68
2022/09/21 05:39:10;;;;;;;59.10;2.83;;;;;;;;;;5076277;28;20699;-67
2022/09/21 05:41:37;;;;;;;59.17;3.30;;;;;;;;;;5076021;28;20205;-68
2022/09/21 05:44:05;;;;;;;57.92;3.10;;;;;;;;;;5075682;28;20232;-68
2022/09/21 05:46:36;;;;;;;62.47;4.30;;;;;;;;;;5077412;28;20680;-69
2022/09/21 05:49:06;;;;;;;59.10;3.45;;;;;;;;;;5077537;28;20695;-68
2022/09/21 05:51:38;;;;;;;58.85;3.40;;;;;;;;;;5077524;28;20201;-67
2022/09/21 05:54:09;;;;;;;59.05;3.58;;;;;;;;;;5075891;28;20225;-68
2022/09/21 05:56:43;;;;;;;58.17;3.50;;;;;;;;;;5076471;28;20215;-68
2022/09/21 05:59:25;;;;;;;58.72;3.78;;;;;;;;;;5076321;28;20212;-67
2022/09/21 06:01:59;;;;;;;58.33;3.05;;;;;;;;;;5074656;28;20494;-68
2022/09/21 06:04:26;;;;;;;58.35;3.30;;;;;;;;;;5077329;28;20231;-68
2022/09/21 06:06:53;;;;;;;58.80;3.13;;;;;;;;;;5077183;28;20213;-68
2022/09/21 06:09:20;;;;;;;63.67;4.65;;;;;;;;;;5074663;28;20586;-68
2022/09/21 06:11:49;;;;;;;58.42;3.22;;;;;;;;;;5055870;28;20213;-68
2022/09/21 06:14:23;;;;;;;58.13;3.10;;;;;;;;;;5055680;28;20234;-68
2022/09/21 06:16:50;;;;;;;59.00;3.60;;;;;;;;;;5055833;28;20568;-68
2022/09/21 06:19:17;;;;;;;58.50;3.50;;;;;;;;;;5055204;28;20209;-67
2022/09/21 06:21:44;;;;;;;59.22;4.25;;;;;;;;;;5055449;28;20208;-69
2022/09/21 06:24:12;;;;;;;58.13;2.85;;;;;;;;;;5055763;28;20840;-68
2022/09/21 06:26:39;;;;;;;59.78;3.42;;;;;;;;;;5056058;28;20210;-68
2022/09/21 06:29:07;;;;;;;58.60;3.70;;;;;;;;;;5053764;28;20210;-68
2022/09/21 06:31:35;;;;;;;57.95;2.92;;;;;;;;;;5055134;28;20205;-68
2022/09/21 06:34:02;;;;;;;59.38;3.58;;;;;;;;;;5027840;28;1079584;-67
2022/09/21 06:36:29;;;;;;;60.08;3.85;;;;;;;;;;5076772;28;20231;-68
2022/09/21 06:38:57;;;;;;;58.63;3.25;;;;;;;;;;5077244;28;20205;-68
2022/09/21 06:41:24;;;;;;;58.47;2.90;;;;;;;;;;5077475;28;20323;-67
2022/09/21 06:43:54;;;;;;;58.78;3.58;;;;;;;;;;5076658;28;20225;-68
2022/09/21 06:46:22;;;;;;;58.78;3.95;;;;;;;;;;5077137;28;20616;-69
2022/09/21 06:48:49;;;;;;;59.67;4.10;;;;;;;;;;5076623;28;20222;-68
2022/09/21 06:51:19;;;;;;;58.80;3.30;;;;;;;;;;5076951;28;20212;-67
2022/09/21 06:53:46;;;;;;;58.80;3.75;;;;;;;;;;5075881;28;20320;-68
2022/09/21 06:56:13;;;;;;;64.45;4.85;;;;;;;;;;5075889;28;20247;-68
2022/09/21 06:58:40;;;;;;;59.30;3.25;;;;;;;;;;5076128;28;20217;-67
2022/09/21 07:01:08;;;;;;;58.58;3.40;;;;;;;;;;5076966;28;20215;-69
2022/09/21 07:03:37;;;;;;;59.83;5.13;;;;;;;;;;5075780;28;20684;-68
2022/09/21 07:06:04;;;;;;;59.40;4.43;;;;;;;;;;5073555;28;20201;-69
2022/09/21 07:08:31;;;;;;;60.65;4.78;;;;;;;;;;5076136;28;20217;-68
2022/09/21 07:10:59;;;;;;;58.75;2.95;;;;;;;;;;5075711;28;20244;-66
2022/09/21 07:13:26;;;;;;;59.00;3.50;;;;;;;;;;5080583;28;20213;-68
2022/09/21 07:15:53;;;;;;;59.35;4.57;;;;;;;;;;5074197;28;20518;-68
2022/09/21 07:18:21;;;;;;;61.22;4.20;;;;;;;;;;5073639;28;20202;-69
2022/09/21 07:20:49;;;;;;;58.87;3.70;;;;;;;;;;5073859;28;20672;-69
2022/09/21 07:23:17;;;;;;;59.00;3.57;;;;;;;;;;5074546;28;20463;-69
2022/09/21 07:25:45;;;;;;;58.90;3.40;;;;;;;;;;5075309;28;20526;-69
2022/09/21 07:28:13;;;;;;;58.17;2.90;;;;;;;;;;5076019;28;20447;-69
2022/09/21 07:30:41;;;;;;;58.23;2.97;;;;;;;;;;5074692;28;20447;-67
2022/09/21 07:33:08;;;;;;;64.47;4.07;;;;;;;;;;5075249;28;20447;-67
2022/09/21 07:35:35;;;;;;;59.50;4.30;;;;;;;;;;5074430;28;20815;-68
2022/09/21 07:38:05;;;;;;;59.57;4.30;;;;;;;;;;5072504;28;20459;-68
2022/09/21 07:40:32;;;;;;;60.37;5.50;;;;;;;;;;5073236;28;20447;-68
2022/09/21 07:43:00;;;;;;;58.70;3.27;;;;;;;;;;5074160;28;20462;-69
2022/09/21 07:45:27;;;;;;;59.57;4.30;;;;;;;;;;5073356;28;20883;-69
2022/09/21 07:47:54;;;;;;;60.00;2.83;;;;;;;;;;5074629;28;20457;-69
2022/09/21 07:50:22;;;;;;;60.03;3.70;;;;;;;;;;5074430;28;20952;-69
2022/09/21 07:52:49;;;;;;;58.87;3.43;;;;;;;;;;5074828;28;20457;-69
2022/09/21 07:55:18;;;;;;;59.93;3.60;;;;;;;;;;5075330;28;20867;-68
2022/09/21 08:00:31;;;;;;;58.27;3.10;;;;;;;;;;5075018;28;20981;-68
2022/09/21 08:03:00;;;;;;;59.73;3.80;;;;;;;;;;5074868;28;20455;-68
2022/09/21 08:05:27;;;;;;;58.25;3.15;;;;;;;;;;5074154;28;20882;-69
2022/09/21 08:07:56;;;;;;;58.60;3.50;;;;;;;;;;5073044;28;20205;-68
2022/09/21 08:10:28;;;;;;;58.37;2.83;;;;;;;;;;5075119;28;20451;-68
2022/09/21 08:12:56;;;;;;;58.87;3.87;;;;;;;;;;5075111;28;20947;-68
2022/09/21 08:15:23;;;;;;;58.80;3.30;;;;;;;;;;5074739;28;20868;-69
2022/09/21 08:17:51;;;;;;;59.20;4.40;;;;;;;;;;5074825;28;20478;-67
2022/09/21 08:20:19;;;;;;;59.57;4.20;;;;;;;;;;5075267;28;20538;-66
2022/09/21 08:22:46;;;;;;;59.33;4.40;;;;;;;;;;5074902;28;20447;-68
2022/09/21 08:25:13;;;;;;;58.87;3.60;;;;;;;;;;5075052;28;20467;-68
2022/09/21 08:27:41;;;;;;;60.27;3.93;;;;;;;;;;5074370;28;20452;-69
2022/09/21 08:30:12;;;;;;;60.27;4.23;;;;;;;;;;5075141;28;20546;-68
2022/09/21 08:32:39;;;;;;;60.70;3.20;;;;;;;;;;5074423;28;20486;-67
2022/09/21 08:35:06;;;;;;;60.17;3.97;;;;;;;;;;5073461;28;20491;-69
2022/09/21 08:37:35;;;;;;;63.40;5.40;;;;;;;;;;5074076;28;20443;-68
2022/09/21 08:40:02;;;;;;;60.57;4.13;;;;;;;;;;5070666;28;20547;-69
2022/09/21 08:42:40;;;;;;;59.47;4.00;;;;;;;;;;5074192;28;20447;-67
2022/09/21 08:45:12;;;;;;;59.27;3.40;;;;;;;;;;5075450;28;20550;-68
2022/09/21 08:47:43;;;;;;;59.67;3.73;;;;;;;;;;5073038;28;20530;-67
2022/09/21 08:50:20;;;;;;;62.90;3.93;;;;;;;;;;5072676;28;20458;-69
2022/09/21 08:52:47;;;;;;;59.60;3.50;;;;;;;;;;5079166;28;20477;-69
2022/09/21 08:55:18;;;;;;;58.20;3.40;;;;;;;;;;5076770;28;20483;-69
2022/09/21 08:57:45;;;;;;;58.60;3.40;;;;;;;;;;5073314;28;20462;-70
2022/09/21 09:00:16;;;;;;;59.73;3.87;;;;;;;;;;5075979;28;20450;-69
2022/09/21 09:03:00;;;;;;;58.30;2.93;;;;;;;;;;5077918;28;20504;-68
2022/09/21 09:05:34;;;;;;;60.27;4.13;;;;;;;;;;5075777;28;20466;-69
2022/09/21 09:08:18;;;;;;;59.20;3.43;;;;;;;;;;5079377;28;20957;-68
2022/09/21 09:10:53;;;;;;;58.30;3.10;;;;;;;;;;5073242;28;20448;-68
2022/09/21 09:13:29;;;;;;;59.17;3.90;;;;;;;;;;5073908;28;20452;-69
2022/09/21 09:16:01;;;;;;;60.70;3.67;;;;;;;;;;5073989;28;20471;-67
2022/09/21 09:18:34;;;;;;;58.77;3.50;;;;;;;;;;5073290;28;20452;-68
2022/09/21 09:21:04;;;;;;;58.80;3.53;;;;;;;;;;5074093;28;20443;-69
2022/09/21 09:23:33;;;;;;;58.27;3.23;;;;;;;;;;5074648;28;20955;-68
2022/09/21 09:26:02;;;;;;;59.30;3.67;;;;;;;;;;5071360;28;20449;-66
2022/09/21 09:28:33;;;;;;;58.80;3.40;;;;;;;;;;5074118;28;20826;-64
2022/09/21 09:31:05;;;;;;;59.10;4.33;;;;;;;;;;5076154;28;20490;-67
2022/09/21 09:33:38;;;;;;;58.40;3.10;;;;;;;;;;5072410;28;20456;-68
2022/09/21 09:36:06;;;;;;;58.53;3.10;;;;;;;;;;5074278;28;20492;-67
2022/09/21 09:38:36;;;;;;;59.27;2.90;;;;;;;;;;5074232;28;20456;-61
2022/09/21 09:41:12;;;;;;;58.50;2.90;;;;;;;;;;5074269;28;20453;-68
2022/09/21 09:43:46;;;;;;;58.17;2.67;;;;;;;;;;5074587;28;22256;-65
2022/09/21 09:46:18;;;;;;;59.10;3.30;;;;;;;;;;5080597;28;20451;-67
2022/09/21 09:49:02;;;;;;;60.53;3.40;;;;;;;;;;5077477;28;20451;-65
2022/09/21 09:51:31;;;;;;;58.70;2.90;;;;;;;;;;5082120;28;20494;-66
2022/09/21 09:54:00;;;;;;;58.30;2.43;;;;;;;;;;5079096;28;20471;-67
2022/09/21 09:56:27;;;;;;;57.87;2.20;;;;;;;;;;5076194;28;20494;-67
2022/09/21 09:58:57;;;;;;;58.07;2.17;;;;;;;;;;5076237;28;20561;-66
2022/09/21 10:01:38;;;;;;;57.67;2.10;;;;;;;;;;5074387;28;20452;-66
2022/09/21 10:04:06;;;;;;;58.10;2.63;;;;;;;;;;5070404;28;20529;-65
2022/09/21 10:06:34;;;;;;;58.23;2.47;;;;;;;;;;5074124;28;20496;-65
2022/09/21 10:09:01;;;;;;;57.80;2.33;;;;;;;;;;5073346;28;20458;-65
2022/09/21 10:11:35;;;;;;;57.47;2.53;;;;;;;;;;5073986;28;20447;-64
2022/09/21 10:14:08;;;;;;;57.27;2.30;;;;;;;;;;5073547;28;21013;-64
2022/09/21 10:16:40;;;;;;;57.90;2.40;;;;;;;;;;5073115;28;21014;-66
2022/09/21 10:19:15;;;;;;;57.57;2.20;;;;;;;;;;5073365;28;20450;-66
2022/09/21 10:21:44;;;;;;;57.80;2.23;;;;;;;;;;5073681;28;20443;-65
2022/09/21 10:24:17;;;;;;;58.00;2.53;;;;;;;;;;5073437;28;20463;-69
2022/09/21 10:26:45;;;;;;;57.43;1.93;;;;;;;;;;5073531;28;20997;-66
2022/09/21 10:29:19;;;;;;;58.17;2.13;;;;;;;;;;5072751;28;20444;-65
2022/09/21 10:31:55;;;;;;;57.23;2.00;;;;;;;;;;5073737;28;21015;-67
2022/09/21 10:34:25;;;;;;;57.60;1.90;;;;;;;;;;5069881;28;20478;-64
2022/09/21 10:36:53;;;;;;;57.07;1.80;;;;;;;;;;5072990;28;20580;-67
2022/09/21 10:39:21;;;;;;;57.23;1.73;;;;;;;;;;5071540;28;20513;-66
2022/09/21 10:41:49;;;;;;;57.23;2.00;;;;;;;;;;5073620;28;20440;-66
2022/09/21 10:44:17;;;;;;;59.50;2.27;;;;;;;;;;5072833;28;21015;-65
2022/09/21 10:46:45;;;;;;;57.07;1.73;;;;;;;;;;5073181;28;20841;-66
2022/09/21 10:49:17;;;;;;;57.10;1.90;;;;;;;;;;5072573;28;20505;-66
2022/09/21 10:51:46;;;;;;;57.40;1.83;;;;;;;;;;5073140;28;20451;-66
2022/09/21 10:54:16;;;;;;;56.83;1.70;;;;;;;;;;5072881;28;20832;-66
2022/09/21 10:56:50;;;;;;;58.07;2.17;;;;;;;;;;5072717;28;20489;-65
2022/09/21 10:59:22;;;;;;;57.47;1.87;;;;;;;;;;5072487;28;20443;-66
2022/09/21 11:01:50;;;;;;;57.50;2.10;;;;;;;;;;5072917;28;20449;-64
2022/09/21 11:04:20;;;;;;;57.47;2.00;;;;;;;;;;5072665;28;20473;-66
2022/09/21 11:06:51;;;;;;;58.77;2.00;;;;;;;;;;5070042;28;20447;-65
2022/09/21 11:09:20;;;;;;;58.10;2.70;;;;;;;;;;5072187;28;20989;-65
2022/09/21 11:11:52;;;;;;;58.10;2.33;;;;;;;;;;5072778;28;20453;-66
2022/09/21 11:14:23;;;;;;;57.77;2.10;;;;;;;;;;5072729;28;20532;-67
2022/09/21 11:16:54;;;;;;;57.70;2.00;;;;;;;;;;5072137;28;20474;-67
2022/09/21 11:19:25;;;;;;;58.93;2.87;;;;;;;;;;5072263;28;20455;-68
2022/09/21 11:21:56;;;;;;;57.23;2.10;;;;;;;;;;5072996;28;20458;-68
2022/09/21 11:24:27;;;;;;;57.57;2.00;;;;;;;;;;5072552;28;20463;-68
2022/09/21 11:26:58;;;;;;;57.77;2.20;;;;;;;;;;5073924;28;20450;-66
2022/09/21 11:29:26;;;;;;;57.53;2.10;;;;;;;;;;5071706;28;20451;-67
2022/09/21 11:32:05;;;;;;;57.43;1.90;;;;;;;;;;5072451;28;20455;-67
2022/09/21 11:34:44;;;;;;;57.57;2.00;;;;;;;;;;5072334;28;20471;-65
2022/09/21 11:37:16;;;;;;;59.30;2.27;;;;;;;;;;5070532;28;20486;-65
2022/09/21 11:39:49;;;;;;;57.67;2.00;;;;;;;;;;5072752;28;20447;-67
2022/09/21 11:42:24;;;;;;;58.27;2.60;;;;;;;;;;5072223;28;20460;-65
2022/09/21 11:44:54;;;;;;;57.90;2.10;;;;;;;;;;5072507;28;20473;-67
2022/09/21 11:47:30;;;;;;;58.00;2.30;;;;;;;;;;5073601;28;20487;-66
2022/09/21 11:50:04;;;;;;;57.93;2.50;;;;;;;;;;5070882;28;20457;-67
2022/09/21 11:52:40;;;;;;;58.60;2.70;;;;;;;;;;5072438;28;20458;-68
2022/09/21 11:55:21;;;;;;;57.70;2.20;;;;;;;;;;5074818;28;20467;-67
2022/09/21 11:57:51;;;;;;;58.10;2.40;;;;;;;;;;5071959;28;20479;-67
2022/09/21 12:00:20;;;;;;;57.67;2.20;;;;;;;;;;5071800;28;20443;-67
2022/09/21 12:03:06;;;;;;;57.90;2.20;;;;;;;;;;5072260;28;20505;-67
2022/09/21 12:05:36;;;;;;;58.20;2.60;;;;;;;;;;5072032;28;20465;-66
2022/09/21 12:08:25;;;;;;;58.07;2.40;;;;;;;;;;5072421;28;20827;-67
2022/09/21 12:10:59;;;;;;;58.17;2.70;;;;;;;;;;5067170;28;21041;-67
2022/09/21 12:13:30;;;;;;;57.60;2.47;;;;;;;;;;5072297;28;20450;-67
2022/09/21 12:16:02;;;;;;;57.73;2.50;;;;;;;;;;5072155;28;20443;-67
2022/09/21 12:18:34;;;;;;;58.77;2.50;;;;;;;;;;5071365;28;20454;-63
2022/09/21 12:21:05;;;;;;;57.80;2.50;;;;;;;;;;5071629;28;20448;-64
2022/09/21 12:23:44;;;;;;;57.77;2.10;;;;;;;;;;5071255;28;20450;-65
2022/09/21 12:26:15;;;;;;;57.57;2.10;;;;;;;;;;5069348;28;20830;-66
2022/09/21 12:28:43;;;;;;;58.10;2.30;;;;;;;;;;5071522;28;20447;-66
2022/09/21 12:31:12;;;;;;;57.60;2.30;;;;;;;;;;5071569;28;20447;-67
2022/09/21 12:33:44;;;;;;;57.23;2.03;;;;;;;;;;5071403;28;20450;-66
2022/09/21 12:36:15;;;;;;;57.23;2.03;;;;;;;;;;5071507;28;20454;-67
2022/09/21 12:38:44;;;;;;;57.37;2.20;;;;;;;;;;5071247;28;20451;-68
2022/09/21 12:41:15;;;;;;;56.97;1.90;;;;;;;;;;5071430;28;20449;-66
2022/09/21 12:43:45;;;;;;;57.57;1.90;;;;;;;;;;5071385;28;20475;-65
2022/09/21 12:46:14;;;;;;;58.57;3.40;;;;;;;;;;5071190;28;20462;-66
2022/09/21 12:48:43;;;;;;;57.47;2.10;;;;;;;;;;5070715;28;20452;-66
2022/09/21 12:51:12;;;;;;;57.37;1.97;;;;;;;;;;5071153;28;20463;-67
2022/09/21 12:53:44;;;;;;;57.53;2.43;;;;;;;;;;5071221;28;20803;-67
2022/09/21 12:56:14;;;;;;;57.90;2.50;;;;;;;;;;5070927;28;20447;-65
2022/09/21 12:58:49;;;;;;;57.27;1.90;;;;;;;;;;5068697;28;20542;-66
2022/09/21 13:01:21;;;;;;;58.10;2.20;;;;;;;;;;5071958;28;20504;-67
2022/09/21 13:03:54;;;;;;;57.03;1.83;;;;;;;;;;5078692;28;20536;-65
2022/09/21 13:06:31;;;;;;;57.87;2.10;;;;;;;;;;5079332;28;20542;-68
2022/09/21 13:09:01;;;;;;;57.47;1.97;;;;;;;;;;5075785;28;20497;-69
2022/09/21 13:11:29;;;;;;;57.37;1.90;;;;;;;;;;5077559;28;20508;-66
2022/09/21 13:13:59;;;;;;;57.17;1.80;;;;;;;;;;5077013;28;20610;-68
2022/09/21 13:16:28;;;;;;;57.80;2.10;;;;;;;;;;5075400;28;20461;-66
2022/09/21 13:18:57;;;;;;;57.17;1.80;;;;;;;;;;5084694;28;20447;-65
2022/09/21 13:21:26;;;;;;;57.50;1.90;;;;;;;;;;5083636;28;20856;-67
2022/09/21 13:23:56;;;;;;;57.50;1.80;;;;;;;;;;5079199;28;20471;-67
2022/09/21 13:26:30;;;;;;;57.30;1.80;;;;;;;;;;5076302;28;20463;-66
2022/09/21 13:29:05;;;;;;;57.27;2.03;;;;;;;;;;5074439;28;20454;-67
2022/09/21 13:31:42;;;;;;;57.17;2.07;;;;;;;;;;5074503;28;20455;-67
2022/09/21 13:34:23;;;;;;;57.07;1.70;;;;;;;;;;5074479;28;20475;-66
2022/09/21 13:37:05;;;;;;;56.97;1.70;;;;;;;;;;5074347;28;20485;-67
2022/09/21 13:39:32;;;;;;;57.47;1.90;;;;;;;;;;5075212;28;20447;-65
2022/09/21 13:42:19;;;;;;;57.33;1.90;;;;;;;;;;5075669;28;20450;-64
2022/09/21 13:44:48;;;;;;;57.30;1.77;;;;;;;;;;5080840;28;20474;-66
2022/09/21 13:47:27;;;;;;;57.40;1.90;;;;;;;;;;5082990;28;20999;-67
2022/09/21 13:49:54;;;;;;;56.87;1.70;;;;;;;;;;5076770;28;20550;-68
2022/09/21 13:52:27;;;;;;;57.13;1.60;;;;;;;;;;5078193;28;20447;-68
2022/09/21 13:54:56;;;;;;;57.47;1.70;;;;;;;;;;5078197;28;20460;-67
2022/09/21 13:57:27;;;;;;;57.03;1.80;;;;;;;;;;5079304;28;20499;-67
2022/09/21 14:00:06;;;;;;;57.07;1.67;;;;;;;;;;5078116;28;20444;-67
2022/09/21 14:02:34;;;;;;;56.97;1.70;;;;;;;;;;5074795;28;20534;-66
2022/09/21 14:05:04;;;;;;;57.10;1.50;;;;;;;;;;5075853;28;20490;-66
2022/09/21 14:07:33;;;;;;;61.30;2.00;;;;;;;;;;5075549;28;20794;-67
2022/09/21 14:10:01;;;;;;;57.27;2.00;;;;;;;;;;5074636;28;20681;-69
2022/09/21 14:12:32;;;;;;;57.50;1.97;;;;;;;;;;5073926;28;20455;-64
2022/09/21 14:15:18;;;;;;;57.60;2.10;;;;;;;;;;5074858;28;20995;-65
2022/09/21 14:18:07;;;;;;;58.50;1.87;;;;;;;;;;5077384;28;20905;-65
2022/09/21 14:20:36;;;;;;;57.37;2.27;;;;;;;;;;5077334;28;20473;-69
2022/09/21 14:23:27;;;;;;;56.73;1.90;;;;;;;;;;5078128;28;20827;-67
2022/09/21 14:25:55;;;;;;;57.47;2.10;;;;;;;;;;5077155;28;20865;-68
2022/09/21 14:28:33;;;;;;;57.47;2.00;;;;;;;;;;5077952;28;20490;-65
2022/09/21 14:31:02;;;;;;;58.10;2.20;;;;;;;;;;5075879;28;20458;-67
2022/09/21 14:33:42;;;;;;;57.77;2.00;;;;;;;;;;5077507;28;20457;-68
2022/09/21 14:36:10;;;;;;;57.60;2.17;;;;;;;;;;5076210;28;20550;-68
2022/09/21 14:38:42;;;;;;;57.57;2.10;;;;;;;;;;5074991;28;20483;-67
2022/09/21 14:41:10;;;;;;;58.27;2.00;;;;;;;;;;5074483;28;20571;-63
2022/09/21 14:43:39;;;;;;;57.40;2.00;;;;;;;;;;5074981;28;20505;-65
2022/09/21 14:46:17;;;;;;;57.40;2.40;;;;;;;;;;5074199;28;20459;-65
2022/09/21 14:48:51;;;;;;;57.60;2.07;;;;;;;;;;5074564;28;20440;-65
2022/09/21 14:51:21;;;;;;;57.70;2.10;;;;;;;;;;5074638;28;20458;-65
2022/09/21 14:54:03;;;;;;;57.40;2.10;;;;;;;;;;5073910;28;20471;-65